San Diego, California
Traffic Map
Current Weather Conditions
San Diego, California
Overcast
Overcast
18°
Feels Like: 18°
Wind Chill: 18° Ceiling: 1700
Heat Index: 18° Visibility: 10mi
Dew Point: 13° Wind: 0mph
Humidity: 75% Direction: ° ()
Pressure: 29.97in Gusts: 0mph
Raw Report DataKSAN 251251Z 00000KT 10SM OVC017 18/13 A2997 RMK AO2 SLP147 T01780133
Traffic Incident Summary
Active as of:
Severity:
Category:
InformationThere was an issue retrieving the traffic information for this location. Please try a different location or try again shortly.
Advertisements